createdAt,value
2022-11-02T00:02:19.626Z,10.68
2022-11-02T00:06:22.658Z,10.68
2022-11-02T00:10:26.491Z,10.67
2022-11-02T00:14:31.061Z,10.68
2022-11-02T00:18:34.798Z,10.69
2022-11-02T00:22:38.558Z,10.68
2022-11-02T00:26:41.590Z,10.68
2022-11-02T00:30:46.194Z,10.69
2022-11-02T00:34:49.319Z,10.67
2022-11-02T00:38:52.413Z,10.65
2022-11-02T00:42:55.508Z,10.62
2022-11-02T00:46:59.896Z,10.58
2022-11-02T00:51:03.097Z,10.56
2022-11-02T00:55:08.922Z,10.56
2022-11-02T00:59:12.440Z,10.54
2022-11-02T01:03:16.916Z,10.51
2022-11-02T01:07:20.097Z,10.47
2022-11-02T01:11:25.001Z,10.42
2022-11-02T01:15:28.013Z,10.42
2022-11-02T01:19:32.405Z,10.37
2022-11-02T01:23:36.505Z,10.35
2022-11-02T01:27:39.759Z,10.34
2022-11-02T01:31:43.004Z,10.32
2022-11-02T01:35:47.492Z,10.32
2022-11-02T01:39:50.473Z,10.35
2022-11-02T01:43:56.522Z,10.35
2022-11-02T01:47:59.959Z,10.37
2022-11-02T01:52:08.527Z,10.40
2022-11-02T01:56:13.743Z,10.44
2022-11-02T02:00:19.882Z,10.43
2022-11-02T02:04:25.325Z,10.42
2022-11-02T02:08:30.016Z,10.39
2022-11-02T02:12:34.267Z,10.39
2022-11-02T02:16:58.487Z,10.36
2022-11-02T02:21:18.860Z,10.37
2022-11-02T02:25:45.840Z,10.34
2022-11-02T02:29:59.154Z,10.32
2022-11-02T02:34:10.611Z,10.30
2022-11-02T02:38:20.849Z,10.29
2022-11-02T02:42:29.622Z,10.24
2022-11-02T02:46:41.940Z,10.18
2022-11-02T02:50:50.061Z,10.19
2022-11-02T02:55:00.084Z,10.20
2022-11-02T02:59:07.162Z,10.17
2022-11-02T03:03:12.905Z,10.19
2022-11-02T03:07:21.587Z,10.20
2022-11-02T03:11:25.509Z,10.21
2022-11-02T03:15:37.429Z,10.23
2022-11-02T03:19:50.657Z,10.24
2022-11-02T03:24:00.719Z,10.24
2022-11-02T03:28:12.878Z,10.26
2022-11-02T03:32:23.806Z,10.26
2022-11-02T03:36:34.634Z,10.27
2022-11-02T03:40:44.244Z,10.26
2022-11-02T03:44:51.773Z,10.26
2022-11-02T03:48:57.094Z,10.24
2022-11-02T03:53:08.602Z,10.23
2022-11-02T03:57:19.244Z,10.24
2022-11-02T04:01:23.668Z,10.26
2022-11-02T04:05:31.313Z,10.26
2022-11-02T04:09:38.758Z,10.28
2022-11-02T04:13:59.309Z,10.31
2022-11-02T04:18:22.943Z,10.31
2022-11-02T04:22:43.288Z,10.29
2022-11-02T04:26:54.942Z,10.30
2022-11-02T04:30:59.824Z,10.30
2022-11-02T04:35:06.913Z,10.31
2022-11-02T04:39:10.577Z,10.33
2022-11-02T04:43:15.252Z,10.33
2022-11-02T04:47:18.899Z,10.31
2022-11-02T04:51:23.447Z,10.31
2022-11-02T04:55:28.173Z,10.31
2022-11-02T04:59:32.653Z,10.29
2022-11-02T05:03:35.960Z,10.26
2022-11-02T05:07:39.794Z,10.23
2022-11-02T05:11:43.422Z,10.21
2022-11-02T05:15:49.044Z,10.24
2022-11-02T05:19:52.405Z,10.25
2022-11-02T05:23:56.794Z,10.24
2022-11-02T05:28:00.093Z,10.24
2022-11-02T05:32:05.968Z,10.22
2022-11-02T05:36:11.125Z,10.22
2022-11-02T05:40:17.223Z,10.20
2022-11-02T05:44:20.580Z,10.19
2022-11-02T05:48:26.901Z,10.18
2022-11-02T05:52:30.014Z,10.17
2022-11-02T05:56:33.084Z,10.16
2022-11-02T06:00:36.144Z,10.16
2022-11-02T06:04:40.572Z,10.14
2022-11-02T06:08:43.840Z,10.13
2022-11-02T06:12:47.116Z,10.10
2022-11-02T06:16:50.345Z,10.07
2022-11-02T06:20:54.793Z,10.07
2022-11-02T06:24:57.886Z,10.06
2022-11-02T06:29:00.900Z,10.04
2022-11-02T06:33:06.894Z,10.02
2022-11-02T06:37:11.793Z,9.99
2022-11-02T06:41:15.154Z,9.94
2022-11-02T06:45:18.454Z,9.96
2022-11-02T06:49:21.980Z,10.00
2022-11-02T06:53:26.558Z,10.05
2022-11-02T06:57:29.753Z,10.10
2022-11-02T07:01:33.024Z,10.14
2022-11-02T07:05:38.210Z,10.17
2022-11-02T07:09:42.648Z,10.22
2022-11-02T07:13:46.121Z,10.27
2022-11-02T07:17:49.326Z,10.32
2022-11-02T07:21:52.414Z,10.38
2022-11-02T07:25:57.233Z,10.46
2022-11-02T07:30:00.271Z,10.52
2022-11-02T07:34:03.381Z,10.60
2022-11-02T07:38:08.427Z,10.66
2022-11-02T07:42:12.930Z,10.75
2022-11-02T07:46:19.653Z,10.87
2022-11-02T07:50:24.353Z,10.97
2022-11-02T07:54:27.562Z,11.06
2022-11-02T07:58:32.597Z,11.15
2022-11-02T08:02:35.620Z,11.26
2022-11-02T08:06:38.686Z,11.34
2022-11-02T08:10:42.213Z,11.46
2022-11-02T08:14:46.610Z,11.61
2022-11-02T08:18:49.813Z,11.69
2022-11-02T08:22:53.066Z,11.75
2022-11-02T08:26:56.027Z,11.86
2022-11-02T08:31:00.597Z,11.95
2022-11-02T08:35:04.644Z,12.07
2022-11-02T08:39:07.955Z,12.18
2022-11-02T08:43:12.702Z,12.29
2022-11-02T08:47:18.812Z,12.42
2022-11-02T08:51:21.961Z,12.51
2022-11-02T08:55:25.079Z,12.50
2022-11-02T08:59:28.087Z,12.56
2022-11-02T09:03:32.501Z,12.65
2022-11-02T09:07:35.541Z,12.78
2022-11-02T09:11:38.583Z,12.91
2022-11-02T09:15:42.778Z,12.99
2022-11-02T09:19:47.716Z,13.07
2022-11-02T09:23:50.941Z,13.14
2022-11-02T09:27:55.789Z,13.22
2022-11-02T09:31:58.971Z,13.29
2022-11-02T09:36:05.565Z,13.36
2022-11-02T09:40:10.667Z,13.50
2022-11-02T09:44:19.830Z,13.59
2022-11-02T09:48:28.960Z,13.65
2022-11-02T09:52:37.704Z,13.72
2022-11-02T09:56:42.519Z,13.84
2022-11-02T10:00:50.485Z,13.92
2022-11-02T10:05:15.034Z,14.04
2022-11-02T10:09:27.551Z,14.09
2022-11-02T10:13:37.681Z,14.17
2022-11-02T10:17:43.323Z,14.28
2022-11-02T10:21:49.433Z,14.51
2022-11-02T10:25:54.428Z,14.72
2022-11-02T10:30:02.907Z,14.91
2022-11-02T10:34:21.892Z,15.12
2022-11-02T10:38:37.953Z,15.31
2022-11-02T10:42:57.687Z,15.48
2022-11-02T10:47:10.116Z,15.60
2022-11-02T10:51:15.404Z,15.70
2022-11-02T10:55:27.990Z,15.80
2022-11-02T10:59:32.413Z,15.88
2022-11-02T11:03:35.600Z,15.97
2022-11-02T11:07:39.053Z,16.03
2022-11-02T11:11:42.361Z,16.11
2022-11-02T11:15:52.773Z,16.13
2022-11-02T11:19:59.366Z,16.19
2022-11-02T11:24:20.862Z,16.24
2022-11-02T11:28:26.557Z,16.31
2022-11-02T11:32:32.034Z,16.35
2022-11-02T11:36:37.396Z,16.37
2022-11-02T11:40:45.009Z,16.41
2022-11-02T11:44:57.130Z,16.46
2022-11-02T11:49:01.591Z,16.51
2022-11-02T11:53:23.957Z,16.55
2022-11-02T11:57:31.664Z,16.57
2022-11-02T12:01:41.106Z,16.58
2022-11-02T12:05:54.623Z,16.61
2022-11-02T12:10:07.263Z,16.64
2022-11-02T12:14:21.684Z,16.67
2022-11-02T12:18:40.010Z,16.66
2022-11-02T12:22:58.490Z,16.68
2022-11-02T12:27:17.642Z,16.67
2022-11-02T12:31:30.755Z,16.65
2022-11-02T12:35:45.956Z,16.68
2022-11-02T12:40:06.114Z,16.71
2022-11-02T12:44:28.132Z,16.69
2022-11-02T12:48:42.034Z,16.69
2022-11-02T12:52:55.480Z,16.70
2022-11-02T12:57:00.030Z,16.70
2022-11-02T13:01:13.446Z,16.70
2022-11-02T13:05:21.312Z,16.71
2022-11-02T13:09:29.617Z,16.72
2022-11-02T13:13:40.623Z,16.72
2022-11-02T13:17:48.088Z,16.72
2022-11-02T13:21:55.265Z,16.72
2022-11-02T13:26:02.000Z,16.68
2022-11-02T13:30:14.990Z,16.70
2022-11-02T13:34:24.110Z,16.67
2022-11-02T13:38:32.634Z,16.63
2022-11-02T13:42:48.629Z,16.60
2022-11-02T13:47:10.130Z,16.57
2022-11-02T13:51:24.040Z,16.54
2022-11-02T13:55:41.434Z,16.50
2022-11-02T13:59:47.879Z,16.45
2022-11-02T14:04:00.469Z,16.39
2022-11-02T14:08:07.833Z,16.34
2022-11-02T14:12:29.639Z,16.27
2022-11-02T14:16:44.891Z,16.21
2022-11-02T14:20:49.227Z,16.13
2022-11-02T14:24:56.776Z,16.07
2022-11-02T14:28:59.954Z,16.02
2022-11-02T14:33:07.800Z,15.98
2022-11-02T14:37:29.306Z,15.97
2022-11-02T14:41:57.047Z,15.94
2022-11-02T14:46:13.753Z,15.89
2022-11-02T14:50:19.814Z,15.83
2022-11-02T14:54:24.954Z,15.79
2022-11-02T14:58:34.655Z,15.73
2022-11-02T15:02:43.115Z,15.67
2022-11-02T15:06:53.461Z,15.62
2022-11-02T15:10:58.070Z,15.58
2022-11-02T15:15:07.379Z,15.53
2022-11-02T15:19:39.035Z,15.47
2022-11-02T15:27:58.920Z,15.40
2022-11-02T15:32:04.208Z,15.33
2022-11-02T15:36:14.350Z,15.25
2022-11-02T15:40:23.904Z,15.23
2022-11-02T15:44:42.756Z,15.23
2022-11-02T15:48:53.330Z,15.19
2022-11-02T15:53:26.035Z,15.10
2022-11-02T15:57:42.547Z,15.05
2022-11-02T16:01:48.488Z,14.97
2022-11-02T16:05:52.687Z,14.89
2022-11-02T16:09:55.781Z,14.87
2022-11-02T16:14:17.505Z,14.79
2022-11-02T16:18:26.662Z,14.74
2022-11-02T16:22:29.732Z,14.67
2022-11-02T16:26:33.824Z,14.62
2022-11-02T16:30:38.346Z,14.55
2022-11-02T16:34:43.675Z,14.49
2022-11-02T16:38:57.197Z,14.46
2022-11-02T16:43:00.311Z,14.42
2022-11-02T16:47:18.376Z,14.39
2022-11-02T16:51:24.233Z,14.35
2022-11-02T16:55:37.434Z,14.34
2022-11-02T16:59:51.299Z,14.32
2022-11-02T17:03:54.773Z,14.30
2022-11-02T17:08:05.064Z,14.27
2022-11-02T17:12:14.912Z,14.25
2022-11-02T17:16:18.265Z,14.24
2022-11-02T17:20:24.480Z,14.22
2022-11-02T17:24:35.369Z,14.22
2022-11-02T17:28:45.010Z,14.21
2022-11-02T17:32:48.278Z,14.17
2022-11-02T17:36:52.048Z,14.15
2022-11-02T17:40:57.295Z,14.11
2022-11-02T17:45:00.520Z,14.06
2022-11-02T17:49:03.764Z,14.02
2022-11-02T17:53:07.463Z,13.97
2022-11-02T17:57:13.776Z,13.95
2022-11-02T18:01:18.478Z,13.90
2022-11-02T18:05:24.717Z,13.87
2022-11-02T18:09:29.201Z,13.81
2022-11-02T18:13:33.634Z,13.77
2022-11-02T18:17:36.708Z,13.73
2022-11-02T18:21:39.728Z,13.69
2022-11-02T18:25:42.762Z,13.67
2022-11-02T18:29:47.177Z,13.61
2022-11-02T18:33:52.482Z,13.60
2022-11-02T18:37:55.673Z,13.58
2022-11-02T18:41:58.809Z,13.53
2022-11-02T18:46:03.451Z,13.52
2022-11-02T18:50:08.373Z,13.47
2022-11-02T18:54:12.113Z,13.43
2022-11-02T18:58:15.200Z,13.37
2022-11-02T19:02:19.708Z,13.31
2022-11-02T19:06:41.293Z,13.26
2022-11-02T19:10:46.749Z,13.20
2022-11-02T19:14:53.474Z,13.17
2022-11-02T19:18:58.065Z,13.14
2022-11-02T19:23:01.097Z,13.09
2022-11-02T19:27:04.276Z,13.05
2022-11-02T19:31:08.359Z,13.02
2022-11-02T19:35:12.730Z,13.00
2022-11-02T19:39:15.801Z,12.97
2022-11-02T19:43:18.981Z,12.92
2022-11-02T19:47:22.054Z,12.85
2022-11-02T19:51:28.355Z,12.80
2022-11-02T19:55:31.376Z,12.79
2022-11-02T19:59:35.147Z,12.70
2022-11-02T20:03:39.001Z,12.64
2022-11-02T20:07:43.542Z,12.57
2022-11-02T20:11:48.502Z,12.51
2022-11-02T20:15:57.144Z,12.44
2022-11-02T20:20:00.440Z,12.39
2022-11-02T20:24:05.742Z,12.32
2022-11-02T20:28:08.953Z,12.26
2022-11-02T20:32:12.946Z,12.13
2022-11-02T20:36:17.015Z,12.09
2022-11-02T20:40:21.498Z,12.06
2022-11-02T20:44:25.084Z,12.01
2022-11-02T20:48:28.610Z,11.97
2022-11-02T20:52:31.843Z,11.92
2022-11-02T20:56:36.618Z,11.90
2022-11-02T21:00:39.722Z,11.86
2022-11-02T21:04:42.759Z,11.85
2022-11-02T21:08:45.786Z,11.84
2022-11-02T21:13:08.260Z,11.84
2022-11-02T21:17:11.710Z,11.81
2022-11-02T21:21:16.567Z,11.80
2022-11-02T21:25:19.701Z,11.80
2022-11-02T21:29:24.214Z,11.76
2022-11-02T21:33:27.289Z,11.72
2022-11-02T21:37:30.314Z,11.70
2022-11-02T21:41:38.346Z,11.67
2022-11-02T21:45:51.627Z,11.65
2022-11-02T21:49:54.632Z,11.63
2022-11-02T21:53:57.734Z,11.59
2022-11-02T21:58:00.968Z,11.55
2022-11-02T22:02:05.483Z,11.51
2022-11-02T22:06:09.027Z,11.45
2022-11-02T22:10:12.011Z,11.37
2022-11-02T22:14:15.439Z,11.29
2022-11-02T22:18:19.877Z,11.27
2022-11-02T22:22:23.955Z,11.24
2022-11-02T22:26:29.296Z,11.17
2022-11-02T22:30:34.027Z,11.10
2022-11-02T22:34:38.432Z,11.03
2022-11-02T22:38:54.616Z,10.94
2022-11-02T22:42:58.320Z,10.87
2022-11-02T22:47:01.340Z,10.80
2022-11-02T22:51:06.232Z,10.71
2022-11-02T22:55:10.489Z,10.60
2022-11-02T22:59:14.087Z,10.52
2022-11-02T23:03:17.342Z,10.41
2022-11-02T23:07:21.842Z,10.38
2022-11-02T23:11:27.528Z,10.38
2022-11-02T23:15:31.395Z,10.35
2022-11-02T23:19:37.334Z,10.34
2022-11-02T23:23:59.084Z,10.28
2022-11-02T23:28:19.329Z,10.19
2022-11-02T23:32:28.121Z,10.04
2022-11-02T23:36:31.118Z,10.01
2022-11-02T23:40:35.621Z,10.00
2022-11-02T23:44:38.626Z,9.97
2022-11-02T23:48:44.897Z,9.95
2022-11-02T23:53:07.645Z,9.92
2022-11-02T23:57:12.753Z,9.87
